Terminal Aerodrome Forecast
Issued by NWS Pocatello, ID

Home | Current Version | Previous Version | Text Only | Print | Product List | Glossary On
Versions: 1 2 3 4 5 6 7 8 9 10 11 12 13 14 15
000
FTUS45 KPIH 022300
TAFPIH
TAF
KPIH 022323Z 0300/0324 VRB06KT P6SM VCSH SCT040 BKN060
     FM030600 22014KT P6SM SCT050 BKN070
     FM030900 23015G25KT 2SM -SN BKN010 OVC020
     FM031100 01011G21KT 1SM -SN SCT004 BKN007
     FM031600 02010G20KT P6SM VCSH SCT020 BKN080=

USA.gov is the U.S. government's official web portal to all federal, state and local government web resources and services.